sensor_id;sensor_type;location;lat;lon;timestamp;P1;durP1;ratioP1;P2;durP2;ratioP2
45236;SDS011;30973;51.442;3.580;2023-03-01T00:01:49;9.23;;;6.53;;
45236;SDS011;30973;51.442;3.580;2023-03-01T00:04:16;9.50;;;6.55;;
45236;SDS011;30973;51.442;3.580;2023-03-01T00:06:43;10.15;;;6.65;;
45236;SDS011;30973;51.442;3.580;2023-03-01T00:09:12;11.50;;;7.18;;
45236;SDS011;30973;51.442;3.580;2023-03-01T00:11:39;9.50;;;6.50;;
45236;SDS011;30973;51.442;3.580;2023-03-01T00:14:06;12.27;;;6.90;;
45236;SDS011;30973;51.442;3.580;2023-03-01T00:16:34;9.02;;;6.90;;
45236;SDS011;30973;51.442;3.580;2023-03-01T00:19:01;10.10;;;6.65;;
45236;SDS011;30973;51.442;3.580;2023-03-01T00:21:28;10.93;;;7.18;;
45236;SDS011;30973;51.442;3.580;2023-03-01T00:23:55;11.32;;;7.05;;
45236;SDS011;30973;51.442;3.580;2023-03-01T00:26:22;11.15;;;7.20;;
45236;SDS011;30973;51.442;3.580;2023-03-01T00:28:50;12.48;;;7.22;;
45236;SDS011;30973;51.442;3.580;2023-03-01T00:31:20;10.20;;;7.63;;
45236;SDS011;30973;51.442;3.580;2023-03-01T00:33:48;12.70;;;7.68;;
45236;SDS011;30973;51.442;3.580;2023-03-01T00:36:15;10.48;;;7.60;;
45236;SDS011;30973;51.442;3.580;2023-03-01T00:38:43;9.70;;;7.20;;
45236;SDS011;30973;51.442;3.580;2023-03-01T00:41:12;10.65;;;7.35;;
45236;SDS011;30973;51.442;3.580;2023-03-01T00:43:39;10.45;;;6.93;;
45236;SDS011;30973;51.442;3.580;2023-03-01T00:46:08;10.43;;;7.55;;
45236;SDS011;30973;51.442;3.580;2023-03-01T00:48:35;10.23;;;7.30;;
45236;SDS011;30973;51.442;3.580;2023-03-01T00:51:35;10.88;;;8.02;;
45236;SDS011;30973;51.442;3.580;2023-03-01T00:53:56;11.93;;;7.75;;
45236;SDS011;30973;51.442;3.580;2023-03-01T00:56:24;13.23;;;8.30;;
45236;SDS011;30973;51.442;3.580;2023-03-01T00:58:50;12.18;;;8.02;;
45236;SDS011;30973;51.442;3.580;2023-03-01T01:01:21;12.90;;;8.15;;
45236;SDS011;30973;51.442;3.580;2023-03-01T01:03:52;11.23;;;8.10;;
45236;SDS011;30973;51.442;3.580;2023-03-01T01:06:20;10.88;;;8.38;;
45236;SDS011;30973;51.442;3.580;2023-03-01T01:08:48;13.23;;;8.32;;
45236;SDS011;30973;51.442;3.580;2023-03-01T01:11:15;12.50;;;8.05;;
45236;SDS011;30973;51.442;3.580;2023-03-01T01:13:41;12.15;;;8.52;;
45236;SDS011;30973;51.442;3.580;2023-03-01T01:16:08;10.23;;;7.55;;
45236;SDS011;30973;51.442;3.580;2023-03-01T01:18:35;12.00;;;7.90;;
45236;SDS011;30973;51.442;3.580;2023-03-01T01:21:05;11.55;;;8.10;;
45236;SDS011;30973;51.442;3.580;2023-03-01T01:23:32;12.55;;;8.25;;
45236;SDS011;30973;51.442;3.580;2023-03-01T01:26:08;12.80;;;8.07;;
45236;SDS011;30973;51.442;3.580;2023-03-01T01:28:35;12.65;;;8.68;;
45236;SDS011;30973;51.442;3.580;2023-03-01T01:31:02;10.77;;;8.45;;
45236;SDS011;30973;51.442;3.580;2023-03-01T01:33:29;13.75;;;9.35;;
45236;SDS011;30973;51.442;3.580;2023-03-01T01:35:56;15.15;;;8.52;;
45236;SDS011;30973;51.442;3.580;2023-03-01T01:38:22;10.73;;;8.07;;
45236;SDS011;30973;51.442;3.580;2023-03-01T01:40:50;11.48;;;7.97;;
45236;SDS011;30973;51.442;3.580;2023-03-01T01:43:22;14.10;;;9.70;;
45236;SDS011;30973;51.442;3.580;2023-03-01T01:45:49;14.60;;;9.07;;
45236;SDS011;30973;51.442;3.580;2023-03-01T01:48:17;14.48;;;9.07;;
45236;SDS011;30973;51.442;3.580;2023-03-01T01:50:45;11.50;;;8.20;;
45236;SDS011;30973;51.442;3.580;2023-03-01T01:53:17;13.57;;;8.95;;
45236;SDS011;30973;51.442;3.580;2023-03-01T01:55:46;14.27;;;9.30;;
45236;SDS011;30973;51.442;3.580;2023-03-01T01:58:15;12.95;;;8.70;;
45236;SDS011;30973;51.442;3.580;2023-03-01T02:00:43;10.43;;;7.97;;
45236;SDS011;30973;51.442;3.580;2023-03-01T02:03:11;13.25;;;8.60;;
45236;SDS011;30973;51.442;3.580;2023-03-01T02:08:06;14.32;;;9.48;;
45236;SDS011;30973;51.442;3.580;2023-03-01T02:10:33;13.90;;;9.02;;
45236;SDS011;30973;51.442;3.580;2023-03-01T02:13:00;12.88;;;9.35;;
45236;SDS011;30973;51.442;3.580;2023-03-01T02:15:31;14.50;;;10.25;;
45236;SDS011;30973;51.442;3.580;2023-03-01T02:17:58;15.00;;;9.93;;
45236;SDS011;30973;51.442;3.580;2023-03-01T02:22:54;15.82;;;9.40;;
45236;SDS011;30973;51.442;3.580;2023-03-01T02:30:36;15.90;;;10.70;;
45236;SDS011;30973;51.442;3.580;2023-03-01T02:33:03;14.10;;;10.05;;
45236;SDS011;30973;51.442;3.580;2023-03-01T02:35:31;15.25;;;10.18;;
45236;SDS011;30973;51.442;3.580;2023-03-01T02:37:59;17.08;;;10.50;;
45236;SDS011;30973;51.442;3.580;2023-03-01T02:40:28;15.88;;;11.27;;
45236;SDS011;30973;51.442;3.580;2023-03-01T02:42:56;16.92;;;10.18;;
45236;SDS011;30973;51.442;3.580;2023-03-01T02:45:23;15.55;;;9.85;;
45236;SDS011;30973;51.442;3.580;2023-03-01T02:47:50;15.82;;;9.80;;
45236;SDS011;30973;51.442;3.580;2023-03-01T02:55:30;14.23;;;10.10;;
45236;SDS011;30973;51.442;3.580;2023-03-01T02:57:58;15.38;;;10.43;;
45236;SDS011;30973;51.442;3.580;2023-03-01T03:00:32;13.82;;;10.23;;
45236;SDS011;30973;51.442;3.580;2023-03-01T03:03:00;17.50;;;10.85;;
45236;SDS011;30973;51.442;3.580;2023-03-01T03:05:30;14.55;;;10.02;;
45236;SDS011;30973;51.442;3.580;2023-03-01T03:08:00;14.27;;;10.27;;
45236;SDS011;30973;51.442;3.580;2023-03-01T03:10:36;15.07;;;10.75;;
45236;SDS011;30973;51.442;3.580;2023-03-01T03:13:04;14.77;;;10.20;;
45236;SDS011;30973;51.442;3.580;2023-03-01T03:15:34;16.65;;;10.25;;
45236;SDS011;30973;51.442;3.580;2023-03-01T03:18:03;15.20;;;10.13;;
45236;SDS011;30973;51.442;3.580;2023-03-01T03:20:30;15.20;;;9.90;;
45236;SDS011;30973;51.442;3.580;2023-03-01T03:22:58;14.68;;;9.57;;
45236;SDS011;30973;51.442;3.580;2023-03-01T03:25:25;16.30;;;9.90;;
45236;SDS011;30973;51.442;3.580;2023-03-01T03:27:53;15.05;;;10.63;;
45236;SDS011;30973;51.442;3.580;2023-03-01T03:30:30;16.38;;;10.52;;
45236;SDS011;30973;51.442;3.580;2023-03-01T03:32:57;16.38;;;10.23;;
45236;SDS011;30973;51.442;3.580;2023-03-01T03:35:31;16.58;;;10.55;;
45236;SDS011;30973;51.442;3.580;2023-03-01T03:38:01;18.13;;;10.73;;
45236;SDS011;30973;51.442;3.580;2023-03-01T03:40:51;14.88;;;9.48;;
45236;SDS011;30973;51.442;3.580;2023-03-01T03:43:18;16.52;;;10.77;;
45236;SDS011;30973;51.442;3.580;2023-03-01T03:45:46;14.68;;;10.45;;
45236;SDS011;30973;51.442;3.580;2023-03-01T03:48:13;16.90;;;11.10;;
45236;SDS011;30973;51.442;3.580;2023-03-01T03:50:40;15.40;;;11.43;;
45236;SDS011;30973;51.442;3.580;2023-03-01T03:53:08;19.02;;;11.32;;
45236;SDS011;30973;51.442;3.580;2023-03-01T03:55:35;17.15;;;11.45;;
45236;SDS011;30973;51.442;3.580;2023-03-01T03:58:09;15.20;;;10.30;;
45236;SDS011;30973;51.442;3.580;2023-03-01T04:00:40;16.85;;;11.52;;
45236;SDS011;30973;51.442;3.580;2023-03-01T04:03:07;16.75;;;11.45;;
45236;SDS011;30973;51.442;3.580;2023-03-01T04:05:35;20.65;;;11.98;;
45236;SDS011;30973;51.442;3.580;2023-03-01T04:08:02;18.40;;;12.10;;
45236;SDS011;30973;51.442;3.580;2023-03-01T04:10:29;18.83;;;12.15;;
45236;SDS011;30973;51.442;3.580;2023-03-01T04:12:56;18.38;;;12.55;;
45236;SDS011;30973;51.442;3.580;2023-03-01T04:15:23;18.83;;;11.65;;
45236;SDS011;30973;51.442;3.580;2023-03-01T04:17:51;20.67;;;13.10;;
45236;SDS011;30973;51.442;3.580;2023-03-01T04:20:19;18.77;;;12.48;;
45236;SDS011;30973;51.442;3.580;2023-03-01T04:23:02;19.17;;;12.82;;
45236;SDS011;30973;51.442;3.580;2023-03-01T04:25:45;18.23;;;12.30;;
45236;SDS011;30973;51.442;3.580;2023-03-01T04:28:11;22.00;;;12.35;;
45236;SDS011;30973;51.442;3.580;2023-03-01T04:30:38;17.65;;;12.25;;
45236;SDS011;30973;51.442;3.580;2023-03-01T04:33:06;18.48;;;12.45;;
45236;SDS011;30973;51.442;3.580;2023-03-01T04:35:33;18.77;;;12.43;;
45236;SDS011;30973;51.442;3.580;2023-03-01T04:38:01;18.85;;;12.20;;
45236;SDS011;30973;51.442;3.580;2023-03-01T04:40:28;17.27;;;11.65;;
45236;SDS011;30973;51.442;3.580;2023-03-01T04:42:54;18.45;;;12.45;;
45236;SDS011;30973;51.442;3.580;2023-03-01T04:45:21;16.75;;;11.30;;
45236;SDS011;30973;51.442;3.580;2023-03-01T04:47:48;16.75;;;11.18;;
45236;SDS011;30973;51.442;3.580;2023-03-01T04:50:16;18.75;;;11.75;;
45236;SDS011;30973;51.442;3.580;2023-03-01T04:52:43;17.27;;;11.68;;
45236;SDS011;30973;51.442;3.580;2023-03-01T04:55:10;16.20;;;11.13;;
45236;SDS011;30973;51.442;3.580;2023-03-01T04:57:37;16.70;;;11.20;;
45236;SDS011;30973;51.442;3.580;2023-03-01T05:00:04;16.95;;;10.60;;
45236;SDS011;30973;51.442;3.580;2023-03-01T05:02:47;16.35;;;11.02;;
45236;SDS011;30973;51.442;3.580;2023-03-01T05:05:15;15.98;;;10.30;;
45236;SDS011;30973;51.442;3.580;2023-03-01T05:07:41;16.42;;;9.82;;
45236;SDS011;30973;51.442;3.580;2023-03-01T05:10:08;14.95;;;11.10;;
45236;SDS011;30973;51.442;3.580;2023-03-01T05:12:35;14.52;;;9.25;;
45236;SDS011;30973;51.442;3.580;2023-03-01T05:15:04;14.10;;;9.73;;
45236;SDS011;30973;51.442;3.580;2023-03-01T05:17:33;13.77;;;9.68;;
45236;SDS011;30973;51.442;3.580;2023-03-01T05:20:00;14.20;;;9.52;;
45236;SDS011;30973;51.442;3.580;2023-03-01T05:22:27;15.05;;;9.70;;
45236;SDS011;30973;51.442;3.580;2023-03-01T05:24:54;15.00;;;9.70;;
45236;SDS011;30973;51.442;3.580;2023-03-01T05:27:21;12.98;;;8.57;;
45236;SDS011;30973;51.442;3.580;2023-03-01T05:29:48;14.68;;;9.80;;
45236;SDS011;30973;51.442;3.580;2023-03-01T05:32:15;15.25;;;9.65;;
45236;SDS011;30973;51.442;3.580;2023-03-01T05:34:42;14.27;;;9.05;;
45236;SDS011;30973;51.442;3.580;2023-03-01T05:37:09;13.82;;;8.70;;
45236;SDS011;30973;51.442;3.580;2023-03-01T05:39:36;14.95;;;9.88;;
45236;SDS011;30973;51.442;3.580;2023-03-01T05:42:02;15.68;;;10.32;;
45236;SDS011;30973;51.442;3.580;2023-03-01T05:44:29;14.60;;;10.15;;
45236;SDS011;30973;51.442;3.580;2023-03-01T05:46:56;14.70;;;9.77;;
45236;SDS011;30973;51.442;3.580;2023-03-01T05:49:23;15.07;;;9.90;;
45236;SDS011;30973;51.442;3.580;2023-03-01T05:51:51;16.30;;;9.95;;
45236;SDS011;30973;51.442;3.580;2023-03-01T05:54:18;16.08;;;10.38;;
45236;SDS011;30973;51.442;3.580;2023-03-01T05:56:45;16.63;;;10.25;;
45236;SDS011;30973;51.442;3.580;2023-03-01T05:59:12;17.15;;;10.45;;
45236;SDS011;30973;51.442;3.580;2023-03-01T06:01:40;16.25;;;10.25;;
45236;SDS011;30973;51.442;3.580;2023-03-01T06:04:07;18.10;;;11.20;;
45236;SDS011;30973;51.442;3.580;2023-03-01T06:06:34;15.63;;;10.70;;
45236;SDS011;30973;51.442;3.580;2023-03-01T06:09:00;19.58;;;11.40;;
45236;SDS011;30973;51.442;3.580;2023-03-01T06:11:27;20.88;;;12.07;;
45236;SDS011;30973;51.442;3.580;2023-03-01T06:13:54;19.50;;;12.70;;
45236;SDS011;30973;51.442;3.580;2023-03-01T06:16:20;20.52;;;13.30;;
45236;SDS011;30973;51.442;3.580;2023-03-01T06:18:47;20.02;;;12.10;;
45236;SDS011;30973;51.442;3.580;2023-03-01T06:21:13;22.17;;;12.80;;
45236;SDS011;30973;51.442;3.580;2023-03-01T06:23:40;20.10;;;12.38;;
45236;SDS011;30973;51.442;3.580;2023-03-01T06:26:07;23.52;;;12.75;;
45236;SDS011;30973;51.442;3.580;2023-03-01T06:28:34;22.33;;;13.20;;
45236;SDS011;30973;51.442;3.580;2023-03-01T06:31:01;22.23;;;13.70;;
45236;SDS011;30973;51.442;3.580;2023-03-01T06:33:28;20.70;;;12.45;;
45236;SDS011;30973;51.442;3.580;2023-03-01T06:35:55;24.17;;;13.77;;
45236;SDS011;30973;51.442;3.580;2023-03-01T06:38:24;21.17;;;12.75;;
45236;SDS011;30973;51.442;3.580;2023-03-01T06:40:51;21.70;;;12.55;;
45236;SDS011;30973;51.442;3.580;2023-03-01T06:43:18;20.48;;;12.10;;
45236;SDS011;30973;51.442;3.580;2023-03-01T06:45:44;21.67;;;13.23;;
45236;SDS011;30973;51.442;3.580;2023-03-01T06:48:11;22.80;;;13.20;;
45236;SDS011;30973;51.442;3.580;2023-03-01T06:50:38;22.38;;;12.82;;
45236;SDS011;30973;51.442;3.580;2023-03-01T06:53:05;22.45;;;13.50;;
45236;SDS011;30973;51.442;3.580;2023-03-01T06:55:32;20.90;;;12.70;;
45236;SDS011;30973;51.442;3.580;2023-03-01T06:57:59;24.75;;;12.80;;
45236;SDS011;30973;51.442;3.580;2023-03-01T07:00:26;24.33;;;13.48;;
45236;SDS011;30973;51.442;3.580;2023-03-01T07:02:53;24.70;;;14.38;;
45236;SDS011;30973;51.442;3.580;2023-03-01T07:05:19;22.05;;;13.50;;
45236;SDS011;30973;51.442;3.580;2023-03-01T07:07:46;26.52;;;14.77;;
45236;SDS011;30973;51.442;3.580;2023-03-01T07:10:13;26.08;;;15.60;;
45236;SDS011;30973;51.442;3.580;2023-03-01T07:12:39;23.10;;;14.73;;
45236;SDS011;30973;51.442;3.580;2023-03-01T07:15:08;26.40;;;15.15;;
45236;SDS011;30973;51.442;3.580;2023-03-01T07:17:35;23.92;;;14.18;;
45236;SDS011;30973;51.442;3.580;2023-03-01T07:20:02;22.02;;;13.50;;
45236;SDS011;30973;51.442;3.580;2023-03-01T07:22:29;25.35;;;14.20;;
45236;SDS011;30973;51.442;3.580;2023-03-01T07:24:55;24.35;;;14.20;;
45236;SDS011;30973;51.442;3.580;2023-03-01T07:27:22;28.52;;;14.77;;
45236;SDS011;30973;51.442;3.580;2023-03-01T07:31:32;24.63;;;12.90;;
45236;SDS011;30973;51.442;3.580;2023-03-01T07:33:59;21.83;;;12.77;;
45236;SDS011;30973;51.442;3.580;2023-03-01T07:36:29;22.17;;;12.20;;
45236;SDS011;30973;51.442;3.580;2023-03-01T07:38:59;19.85;;;11.35;;
45236;SDS011;30973;51.442;3.580;2023-03-01T07:41:29;20.30;;;11.45;;
45236;SDS011;30973;51.442;3.580;2023-03-01T07:43:55;18.90;;;10.77;;
45236;SDS011;30973;51.442;3.580;2023-03-01T07:46:22;17.35;;;11.00;;
45236;SDS011;30973;51.442;3.580;2023-03-01T07:48:49;22.95;;;10.48;;
45236;SDS011;30973;51.442;3.580;2023-03-01T07:51:15;21.13;;;10.82;;
45236;SDS011;30973;51.442;3.580;2023-03-01T07:53:44;17.33;;;10.32;;
45236;SDS011;30973;51.442;3.580;2023-03-01T07:56:12;17.00;;;10.50;;
45236;SDS011;30973;51.442;3.580;2023-03-01T07:58:40;17.00;;;10.68;;
45236;SDS011;30973;51.442;3.580;2023-03-01T08:01:07;16.17;;;9.80;;
45236;SDS011;30973;51.442;3.580;2023-03-01T08:03:34;13.70;;;9.25;;
45236;SDS011;30973;51.442;3.580;2023-03-01T08:06:02;15.43;;;9.48;;
45236;SDS011;30973;51.442;3.580;2023-03-01T08:08:29;13.85;;;9.55;;
45236;SDS011;30973;51.442;3.580;2023-03-01T08:10:56;13.65;;;8.40;;
45236;SDS011;30973;51.442;3.580;2023-03-01T08:13:23;12.98;;;7.97;;
45236;SDS011;30973;51.442;3.580;2023-03-01T08:15:50;12.55;;;8.00;;
45236;SDS011;30973;51.442;3.580;2023-03-01T08:18:17;12.45;;;7.85;;
45236;SDS011;30973;51.442;3.580;2023-03-01T08:20:45;11.07;;;6.75;;
45236;SDS011;30973;51.442;3.580;2023-03-01T08:23:11;10.35;;;6.28;;
45236;SDS011;30973;51.442;3.580;2023-03-01T08:25:38;9.48;;;6.55;;
45236;SDS011;30973;51.442;3.580;2023-03-01T08:28:05;8.85;;;5.88;;
45236;SDS011;30973;51.442;3.580;2023-03-01T08:30:32;10.75;;;6.40;;
45236;SDS011;30973;51.442;3.580;2023-03-01T08:32:58;11.38;;;7.15;;
45236;SDS011;30973;51.442;3.580;2023-03-01T08:35:25;10.63;;;6.40;;
45236;SDS011;30973;51.442;3.580;2023-03-01T08:37:52;11.40;;;6.13;;
45236;SDS011;30973;51.442;3.580;2023-03-01T08:40:19;11.32;;;6.40;;
45236;SDS011;30973;51.442;3.580;2023-03-01T08:42:46;10.52;;;6.00;;
45236;SDS011;30973;51.442;3.580;2023-03-01T08:45:13;8.80;;;5.22;;
45236;SDS011;30973;51.442;3.580;2023-03-01T08:47:44;10.50;;;6.18;;
45236;SDS011;30973;51.442;3.580;2023-03-01T08:50:11;9.77;;;6.55;;
45236;SDS011;30973;51.442;3.580;2023-03-01T08:52:38;11.65;;;5.47;;
45236;SDS011;30973;51.442;3.580;2023-03-01T08:55:05;10.45;;;5.15;;
45236;SDS011;30973;51.442;3.580;2023-03-01T08:57:32;8.18;;;5.38;;
45236;SDS011;30973;51.442;3.580;2023-03-01T08:59:58;7.28;;;5.15;;
45236;SDS011;30973;51.442;3.580;2023-03-01T09:02:25;7.28;;;5.43;;
45236;SDS011;30973;51.442;3.580;2023-03-01T09:04:52;7.07;;;4.50;;
45236;SDS011;30973;51.442;3.580;2023-03-01T09:07:18;7.78;;;4.40;;
45236;SDS011;30973;51.442;3.580;2023-03-01T09:09:45;6.18;;;4.32;;
45236;SDS011;30973;51.442;3.580;2023-03-01T09:12:12;8.13;;;4.63;;
45236;SDS011;30973;51.442;3.580;2023-03-01T09:14:39;5.82;;;3.80;;
45236;SDS011;30973;51.442;3.580;2023-03-01T09:17:07;5.03;;;3.70;;
45236;SDS011;30973;51.442;3.580;2023-03-01T09:19:34;6.50;;;3.65;;
45236;SDS011;30973;51.442;3.580;2023-03-01T09:22:02;6.57;;;3.85;;
45236;SDS011;30973;51.442;3.580;2023-03-01T09:24:29;6.00;;;3.88;;
45236;SDS011;30973;51.442;3.580;2023-03-01T09:26:56;5.15;;;3.50;;
45236;SDS011;30973;51.442;3.580;2023-03-01T09:29:22;5.72;;;3.30;;
45236;SDS011;30973;51.442;3.580;2023-03-01T09:31:49;6.95;;;3.45;;
45236;SDS011;30973;51.442;3.580;2023-03-01T09:34:16;5.32;;;3.30;;
45236;SDS011;30973;51.442;3.580;2023-03-01T09:36:49;4.07;;;3.05;;
45236;SDS011;30973;51.442;3.580;2023-03-01T09:39:17;6.05;;;3.60;;
45236;SDS011;30973;51.442;3.580;2023-03-01T09:41:48;5.25;;;3.25;;
45236;SDS011;30973;51.442;3.580;2023-03-01T09:46:43;5.05;;;3.05;;
45236;SDS011;30973;51.442;3.580;2023-03-01T09:52:23;4.93;;;3.03;;
45236;SDS011;30973;51.442;3.580;2023-03-01T09:54:53;5.20;;;2.97;;
45236;SDS011;30973;51.442;3.580;2023-03-01T10:02:45;4.35;;;2.80;;
45236;SDS011;30973;51.442;3.580;2023-03-01T10:05:15;4.95;;;2.72;;
45236;SDS011;30973;51.442;3.580;2023-03-01T10:10:27;5.82;;;2.90;;
45236;SDS011;30973;51.442;3.580;2023-03-01T10:12:54;6.60;;;2.65;;
45236;SDS011;30973;51.442;3.580;2023-03-01T10:15:34;5.05;;;3.15;;
45236;SDS011;30973;51.442;3.580;2023-03-01T10:18:03;4.22;;;2.83;;
45236;SDS011;30973;51.442;3.580;2023-03-01T10:20:40;5.63;;;2.97;;
45236;SDS011;30973;51.442;3.580;2023-03-01T10:23:09;6.05;;;2.72;;
45236;SDS011;30973;51.442;3.580;2023-03-01T10:25:41;5.60;;;2.97;;
45236;SDS011;30973;51.442;3.580;2023-03-01T10:28:20;6.13;;;3.13;;
45236;SDS011;30973;51.442;3.580;2023-03-01T10:30:51;5.72;;;2.80;;
45236;SDS011;30973;51.442;3.580;2023-03-01T10:35:51;5.75;;;3.08;;
45236;SDS011;30973;51.442;3.580;2023-03-01T10:38:18;3.85;;;3.05;;
45236;SDS011;30973;51.442;3.580;2023-03-01T10:40:53;4.55;;;3.40;;
45236;SDS011;30973;51.442;3.580;2023-03-01T10:43:20;7.25;;;3.45;;
45236;SDS011;30973;51.442;3.580;2023-03-01T10:45:48;6.68;;;3.28;;
45236;SDS011;30973;51.442;3.580;2023-03-01T10:48:24;5.22;;;3.30;;
45236;SDS011;30973;51.442;3.580;2023-03-01T10:53:29;5.07;;;3.08;;
45236;SDS011;30973;51.442;3.580;2023-03-01T10:56:05;5.95;;;3.22;;
45236;SDS011;30973;51.442;3.580;2023-03-01T10:58:33;8.05;;;3.63;;
45236;SDS011;30973;51.442;3.580;2023-03-01T11:01:01;4.55;;;3.10;;
45236;SDS011;30973;51.442;3.580;2023-03-01T11:03:33;6.88;;;3.47;;
45236;SDS011;30973;51.442;3.580;2023-03-01T11:11:04;5.65;;;3.63;;
45236;SDS011;30973;51.442;3.580;2023-03-01T11:13:31;6.15;;;3.63;;
45236;SDS011;30973;51.442;3.580;2023-03-01T11:15:58;4.88;;;3.33;;
45236;SDS011;30973;51.442;3.580;2023-03-01T11:18:25;5.97;;;3.53;;
45236;SDS011;30973;51.442;3.580;2023-03-01T11:21:11;11.38;;;4.05;;
45236;SDS011;30973;51.442;3.580;2023-03-01T11:23:38;8.38;;;4.70;;
45236;SDS011;30973;51.442;3.580;2023-03-01T11:26:06;11.02;;;4.90;;
45236;SDS011;30973;51.442;3.580;2023-03-01T11:28:37;11.30;;;5.00;;
45236;SDS011;30973;51.442;3.580;2023-03-01T11:31:06;6.35;;;3.60;;
45236;SDS011;30973;51.442;3.580;2023-03-01T11:36:06;9.57;;;3.85;;
45236;SDS011;30973;51.442;3.580;2023-03-01T11:38:34;6.35;;;3.80;;
45236;SDS011;30973;51.442;3.580;2023-03-01T11:41:06;7.00;;;3.85;;
45236;SDS011;30973;51.442;3.580;2023-03-01T11:51:18;8.43;;;4.05;;
45236;SDS011;30973;51.442;3.580;2023-03-01T11:56:21;9.57;;;4.20;;
45236;SDS011;30973;51.442;3.580;2023-03-01T11:59:01;4.55;;;3.42;;
45236;SDS011;30973;51.442;3.580;2023-03-01T12:06:28;7.47;;;3.75;;
45236;SDS011;30973;51.442;3.580;2023-03-01T12:16:40;5.55;;;3.70;;
45236;SDS011;30973;51.442;3.580;2023-03-01T12:19:27;5.65;;;3.95;;
45236;SDS011;30973;51.442;3.580;2023-03-01T12:22:04;7.90;;;4.55;;
45236;SDS011;30973;51.442;3.580;2023-03-01T12:24:50;5.25;;;3.72;;
45236;SDS011;30973;51.442;3.580;2023-03-01T12:43:08;4.72;;;3.45;;
45236;SDS011;30973;51.442;3.580;2023-03-01T12:45:51;6.13;;;3.60;;
45236;SDS011;30973;51.442;3.580;2023-03-01T12:50:48;7.72;;;4.22;;
45236;SDS011;30973;51.442;3.580;2023-03-01T12:53:26;5.40;;;3.78;;
45236;SDS011;30973;51.442;3.580;2023-03-01T12:55:54;5.82;;;3.80;;
45236;SDS011;30973;51.442;3.580;2023-03-01T13:06:45;6.10;;;4.07;;
45236;SDS011;30973;51.442;3.580;2023-03-01T13:09:18;6.05;;;3.92;;
45236;SDS011;30973;51.442;3.580;2023-03-01T13:11:46;5.45;;;3.85;;
45236;SDS011;30973;51.442;3.580;2023-03-01T13:16:51;6.47;;;4.40;;
45236;SDS011;30973;51.442;3.580;2023-03-01T13:19:22;9.65;;;4.35;;
45236;SDS011;30973;51.442;3.580;2023-03-01T13:21:49;7.72;;;4.68;;
45236;SDS011;30973;51.442;3.580;2023-03-01T13:24:23;7.10;;;4.35;;
45236;SDS011;30973;51.442;3.580;2023-03-01T13:37:45;8.15;;;4.32;;
45236;SDS011;30973;51.442;3.580;2023-03-01T13:42:43;7.38;;;4.32;;
45236;SDS011;30973;51.442;3.580;2023-03-01T13:45:41;7.93;;;4.53;;
45236;SDS011;30973;51.442;3.580;2023-03-01T13:48:16;6.85;;;4.43;;
45236;SDS011;30973;51.442;3.580;2023-03-01T13:50:46;6.65;;;4.47;;
45236;SDS011;30973;51.442;3.580;2023-03-01T13:53:16;7.22;;;4.75;;
45236;SDS011;30973;51.442;3.580;2023-03-01T13:55:45;6.93;;;4.50;;
45236;SDS011;30973;51.442;3.580;2023-03-01T13:58:15;6.25;;;4.63;;
45236;SDS011;30973;51.442;3.580;2023-03-01T14:00:42;6.18;;;4.43;;
45236;SDS011;30973;51.442;3.580;2023-03-01T14:03:13;7.32;;;4.43;;
45236;SDS011;30973;51.442;3.580;2023-03-01T14:05:41;7.55;;;4.80;;
45236;SDS011;30973;51.442;3.580;2023-03-01T14:08:19;8.85;;;4.65;;
45236;SDS011;30973;51.442;3.580;2023-03-01T14:18:43;6.28;;;4.45;;
45236;SDS011;30973;51.442;3.580;2023-03-01T14:21:13;9.30;;;4.45;;
45236;SDS011;30973;51.442;3.580;2023-03-01T14:23:40;6.50;;;4.50;;
45236;SDS011;30973;51.442;3.580;2023-03-01T14:26:08;7.25;;;4.88;;
45236;SDS011;30973;51.442;3.580;2023-03-01T14:28:35;11.00;;;5.00;;
45236;SDS011;30973;51.442;3.580;2023-03-01T14:31:30;9.00;;;4.50;;
45236;SDS011;30973;51.442;3.580;2023-03-01T14:33:55;7.45;;;4.75;;
45236;SDS011;30973;51.442;3.580;2023-03-01T14:36:29;6.80;;;4.55;;
45236;SDS011;30973;51.442;3.580;2023-03-01T14:38:56;6.63;;;4.53;;
45236;SDS011;30973;51.442;3.580;2023-03-01T14:41:34;6.88;;;4.10;;
45236;SDS011;30973;51.442;3.580;2023-03-01T14:44:05;7.65;;;4.93;;
45236;SDS011;30973;51.442;3.580;2023-03-01T14:46:33;11.98;;;5.15;;
45236;SDS011;30973;51.442;3.580;2023-03-01T14:49:23;7.68;;;5.38;;
45236;SDS011;30973;51.442;3.580;2023-03-01T14:54:24;7.65;;;4.80;;
45236;SDS011;30973;51.442;3.580;2023-03-01T14:56:52;9.45;;;4.70;;
45236;SDS011;30973;51.442;3.580;2023-03-01T14:59:21;8.55;;;5.25;;
45236;SDS011;30973;51.442;3.580;2023-03-01T15:01:48;6.97;;;4.93;;
45236;SDS011;30973;51.442;3.580;2023-03-01T15:04:15;6.82;;;4.78;;
45236;SDS011;30973;51.442;3.580;2023-03-01T15:06:42;10.15;;;5.70;;
45236;SDS011;30973;51.442;3.580;2023-03-01T15:09:13;8.55;;;5.18;;
45236;SDS011;30973;51.442;3.580;2023-03-01T15:11:42;7.20;;;5.25;;
45236;SDS011;30973;51.442;3.580;2023-03-01T15:14:36;8.07;;;5.50;;
45236;SDS011;30973;51.442;3.580;2023-03-01T15:17:13;7.43;;;5.30;;
45236;SDS011;30973;51.442;3.580;2023-03-01T15:19:42;9.27;;;4.70;;
45236;SDS011;30973;51.442;3.580;2023-03-01T15:22:13;7.88;;;5.25;;
45236;SDS011;30973;51.442;3.580;2023-03-01T15:24:41;8.02;;;5.97;;
45236;SDS011;30973;51.442;3.580;2023-03-01T15:27:14;7.93;;;5.68;;
45236;SDS011;30973;51.442;3.580;2023-03-01T15:29:42;7.93;;;4.95;;
45236;SDS011;30973;51.442;3.580;2023-03-01T15:34:47;6.90;;;4.68;;
45236;SDS011;30973;51.442;3.580;2023-03-01T15:39:59;6.75;;;5.00;;
45236;SDS011;30973;51.442;3.580;2023-03-01T15:45:09;7.07;;;4.82;;
45236;SDS011;30973;51.442;3.580;2023-03-01T15:47:36;6.10;;;4.57;;
45236;SDS011;30973;51.442;3.580;2023-03-01T15:50:05;8.60;;;4.68;;
45236;SDS011;30973;51.442;3.580;2023-03-01T15:52:35;7.80;;;5.03;;
45236;SDS011;30973;51.442;3.580;2023-03-01T15:55:07;7.57;;;4.78;;
45236;SDS011;30973;51.442;3.580;2023-03-01T15:57:40;6.32;;;4.22;;
45236;SDS011;30973;51.442;3.580;2023-03-01T16:00:11;6.65;;;4.47;;
45236;SDS011;30973;51.442;3.580;2023-03-01T16:02:40;8.38;;;4.78;;
45236;SDS011;30973;51.442;3.580;2023-03-01T16:05:21;9.27;;;4.72;;
45236;SDS011;30973;51.442;3.580;2023-03-01T16:07:48;8.60;;;5.13;;
45236;SDS011;30973;51.442;3.580;2023-03-01T16:10:15;6.60;;;4.45;;
45236;SDS011;30973;51.442;3.580;2023-03-01T16:12:42;6.45;;;4.63;;
45236;SDS011;30973;51.442;3.580;2023-03-01T16:15:16;7.88;;;4.70;;
45236;SDS011;30973;51.442;3.580;2023-03-01T16:17:43;8.82;;;5.15;;
45236;SDS011;30973;51.442;3.580;2023-03-01T16:20:10;7.25;;;4.93;;
45236;SDS011;30973;51.442;3.580;2023-03-01T16:22:48;6.25;;;4.60;;
45236;SDS011;30973;51.442;3.580;2023-03-01T16:25:16;8.70;;;5.32;;
45236;SDS011;30973;51.442;3.580;2023-03-01T16:27:43;6.82;;;4.68;;
45236;SDS011;30973;51.442;3.580;2023-03-01T16:30:11;6.75;;;4.80;;
45236;SDS011;30973;51.442;3.580;2023-03-01T16:32:38;6.82;;;4.35;;
45236;SDS011;30973;51.442;3.580;2023-03-01T16:35:06;10.80;;;5.00;;
45236;SDS011;30973;51.442;3.580;2023-03-01T16:37:34;6.35;;;4.70;;
45236;SDS011;30973;51.442;3.580;2023-03-01T16:40:01;8.77;;;5.13;;
45236;SDS011;30973;51.442;3.580;2023-03-01T16:42:28;11.55;;;4.65;;
45236;SDS011;30973;51.442;3.580;2023-03-01T16:44:58;6.47;;;4.55;;
45236;SDS011;30973;51.442;3.580;2023-03-01T16:47:25;8.13;;;5.43;;
45236;SDS011;30973;51.442;3.580;2023-03-01T16:49:52;7.10;;;4.03;;
45236;SDS011;30973;51.442;3.580;2023-03-01T16:52:19;7.35;;;4.43;;
45236;SDS011;30973;51.442;3.580;2023-03-01T16:54:46;8.82;;;4.95;;